sensor_id;sensor_type;location;lat;lon;timestamp;temperature;humidity
55365;DHT22;41245;45.384;20.390;2023-04-24T00:00:01;409.60;2355.20
55365;DHT22;41245;45.384;20.390;2023-04-24T00:02:30;384.90;2329.60
55365;DHT22;41245;45.384;20.390;2023-04-24T00:04:59;384.80;2329.60
55365;DHT22;41245;45.384;20.390;2023-04-24T00:07:28;384.80;2329.60
55365;DHT22;41245;45.384;20.390;2023-04-24T00:09:54;384.80;2329.60
55365;DHT22;41245;45.384;20.390;2023-04-24T00:12:20;384.80;2329.60
55365;DHT22;41245;45.384;20.390;2023-04-24T00:14:45;384.90;2329.60
55365;DHT22;41245;45.384;20.390;2023-04-24T00:17:12;409.60;2355.20
55365;DHT22;41245;45.384;20.390;2023-04-24T00:19:38;409.60;2355.20
55365;DHT22;41245;45.384;20.390;2023-04-24T00:22:03;409.60;2355.20
55365;DHT22;41245;45.384;20.390;2023-04-24T00:24:29;409.60;2355.20
55365;DHT22;41245;45.384;20.390;2023-04-24T00:26:55;409.70;2355.20
55365;DHT22;41245;45.384;20.390;2023-04-24T00:29:21;409.60;2355.20
55365;DHT22;41245;45.384;20.390;2023-04-24T00:31:47;409.70;2355.20
55365;DHT22;41245;45.384;20.390;2023-04-24T00:34:13;409.70;2355.20
55365;DHT22;41245;45.384;20.390;2023-04-24T00:36:39;409.70;2355.20
55365;DHT22;41245;45.384;20.390;2023-04-24T00:39:04;409.70;2355.20
55365;DHT22;41245;45.384;20.390;2023-04-24T00:41:30;409.70;2355.20
55365;DHT22;41245;45.384;20.390;2023-04-24T00:43:56;409.80;2355.20
55365;DHT22;41245;45.384;20.390;2023-04-24T00:46:22;409.70;2355.20
55365;DHT22;41245;45.384;20.390;2023-04-24T00:48:47;409.70;2355.20
55365;DHT22;41245;45.384;20.390;2023-04-24T00:51:13;409.70;2355.20
55365;DHT22;41245;45.384;20.390;2023-04-24T00:53:39;409.70;2355.20
55365;DHT22;41245;45.384;20.390;2023-04-24T00:56:05;409.70;2355.20
55365;DHT22;41245;45.384;20.390;2023-04-24T00:58:31;409.70;2355.20
55365;DHT22;41245;45.384;20.390;2023-04-24T01:00:57;409.70;2355.20
55365;DHT22;41245;45.384;20.390;2023-04-24T01:03:26;409.70;2355.20
55365;DHT22;41245;45.384;20.390;2023-04-24T01:05:54;409.70;2355.20
55365;DHT22;41245;45.384;20.390;2023-04-24T01:08:22;409.70;2355.20
55365;DHT22;41245;45.384;20.390;2023-04-24T01:10:51;409.70;2355.20
55365;DHT22;41245;45.384;20.390;2023-04-24T01:13:18;409.70;2355.20
55365;DHT22;41245;45.384;20.390;2023-04-24T01:15:44;409.70;2355.20
55365;DHT22;41245;45.384;20.390;2023-04-24T01:18:10;409.70;2355.20
55365;DHT22;41245;45.384;20.390;2023-04-24T01:20:38;409.70;2355.20
55365;DHT22;41245;45.384;20.390;2023-04-24T01:23:06;409.70;2355.20
55365;DHT22;41245;45.384;20.390;2023-04-24T01:25:31;409.60;2355.20
55365;DHT22;41245;45.384;20.390;2023-04-24T01:27:58;409.80;2355.20
55365;DHT22;41245;45.384;20.390;2023-04-24T01:30:25;409.70;2355.20
55365;DHT22;41245;45.384;20.390;2023-04-24T01:32:51;409.70;2355.20
55365;DHT22;41245;45.384;20.390;2023-04-24T01:35:17;409.70;2355.20
55365;DHT22;41245;45.384;20.390;2023-04-24T01:37:43;409.70;2355.20
55365;DHT22;41245;45.384;20.390;2023-04-24T01:40:10;409.70;2355.20
55365;DHT22;41245;45.384;20.390;2023-04-24T01:42:36;409.70;2355.20
55365;DHT22;41245;45.384;20.390;2023-04-24T01:45:03;409.70;2355.20
55365;DHT22;41245;45.384;20.390;2023-04-24T01:47:30;409.70;2355.20
55365;DHT22;41245;45.384;20.390;2023-04-24T01:49:56;409.70;2355.20
55365;DHT22;41245;45.384;20.390;2023-04-24T01:52:22;409.70;2355.20
55365;DHT22;41245;45.384;20.390;2023-04-24T01:54:47;409.70;2355.20
55365;DHT22;41245;45.384;20.390;2023-04-24T01:57:14;409.70;2355.20
55365;DHT22;41245;45.384;20.390;2023-04-24T01:59:41;409.70;2355.20
55365;DHT22;41245;45.384;20.390;2023-04-24T02:02:06;409.90;2355.20
55365;DHT22;41245;45.384;20.390;2023-04-24T02:04:32;409.90;2355.20
55365;DHT22;41245;45.384;20.390;2023-04-24T02:06:58;409.90;2355.20
55365;DHT22;41245;45.384;20.390;2023-04-24T02:09:23;409.80;2355.20
55365;DHT22;41245;45.384;20.390;2023-04-24T02:11:50;409.70;2355.20
55365;DHT22;41245;45.384;20.390;2023-04-24T02:14:16;409.70;2355.20
55365;DHT22;41245;45.384;20.390;2023-04-24T02:16:41;409.60;2355.20
55365;DHT22;41245;45.384;20.390;2023-04-24T02:19:07;409.60;2355.20
55365;DHT22;41245;45.384;20.390;2023-04-24T02:21:33;384.90;2329.60
55365;DHT22;41245;45.384;20.390;2023-04-24T02:24:00;384.80;2329.60
55365;DHT22;41245;45.384;20.390;2023-04-24T02:26:25;384.50;2329.60
55365;DHT22;41245;45.384;20.390;2023-04-24T02:28:51;384.50;2329.60
55365;DHT22;41245;45.384;20.390;2023-04-24T02:31:17;384.60;2329.60
55365;DHT22;41245;45.384;20.390;2023-04-24T02:33:42;384.70;2329.60
55365;DHT22;41245;45.384;20.390;2023-04-24T02:36:08;384.50;2329.60
55365;DHT22;41245;45.384;20.390;2023-04-24T02:38:34;384.60;2329.60
55365;DHT22;41245;45.384;20.390;2023-04-24T02:41:00;384.50;2329.60
55365;DHT22;41245;45.384;20.390;2023-04-24T02:43:27;384.40;2329.60
55365;DHT22;41245;45.384;20.390;2023-04-24T02:45:53;384.40;2329.60
55365;DHT22;41245;45.384;20.390;2023-04-24T02:48:19;384.30;2329.60
55365;DHT22;41245;45.384;20.390;2023-04-24T02:50:46;384.30;2329.60
55365;DHT22;41245;45.384;20.390;2023-04-24T02:53:12;384.30;2329.60
55365;DHT22;41245;45.384;20.390;2023-04-24T02:55:38;384.30;2329.60
55365;DHT22;41245;45.384;20.390;2023-04-24T02:58:03;384.20;2329.60
55365;DHT22;41245;45.384;20.390;2023-04-24T03:00:29;384.20;2329.60
55365;DHT22;41245;45.384;20.390;2023-04-24T03:02:55;384.20;2329.60
55365;DHT22;41245;45.384;20.390;2023-04-24T03:05:21;384.20;2329.60
55365;DHT22;41245;45.384;20.390;2023-04-24T03:07:47;384.20;2329.60
55365;DHT22;41245;45.384;20.390;2023-04-24T03:10:12;384.30;2329.60
55365;DHT22;41245;45.384;20.390;2023-04-24T03:12:38;384.30;2329.60
55365;DHT22;41245;45.384;20.390;2023-04-24T03:15:05;384.40;2329.60
55365;DHT22;41245;45.384;20.390;2023-04-24T03:17:31;384.40;2329.60
55365;DHT22;41245;45.384;20.390;2023-04-24T03:19:56;384.30;2329.60
55365;DHT22;41245;45.384;20.390;2023-04-24T03:22:22;384.40;2329.60
55365;DHT22;41245;45.384;20.390;2023-04-24T03:24:48;384.40;2329.60
55365;DHT22;41245;45.384;20.390;2023-04-24T03:27:13;384.40;2329.60
55365;DHT22;41245;45.384;20.390;2023-04-24T03:29:39;384.50;2329.60
55365;DHT22;41245;45.384;20.390;2023-04-24T03:32:05;384.50;2329.60
55365;DHT22;41245;45.384;20.390;2023-04-24T03:34:30;384.70;2329.60
55365;DHT22;41245;45.384;20.390;2023-04-24T03:36:56;384.60;2329.60
55365;DHT22;41245;45.384;20.390;2023-04-24T03:39:22;384.50;2329.60
55365;DHT22;41245;45.384;20.390;2023-04-24T03:41:47;384.40;2329.60
55365;DHT22;41245;45.384;20.390;2023-04-24T03:44:13;384.30;2329.60
55365;DHT22;41245;45.384;20.390;2023-04-24T03:46:39;384.30;2329.60
55365;DHT22;41245;45.384;20.390;2023-04-24T03:49:04;384.30;2329.60
55365;DHT22;41245;45.384;20.390;2023-04-24T03:51:30;384.20;2329.60
55365;DHT22;41245;45.384;20.390;2023-04-24T03:53:56;384.10;2329.60
55365;DHT22;41245;45.384;20.390;2023-04-24T03:56:22;384.10;2329.60
55365;DHT22;41245;45.384;20.390;2023-04-24T03:58:48;384.00;2329.60
55365;DHT22;41245;45.384;20.390;2023-04-24T04:01:14;384.10;2329.60
55365;DHT22;41245;45.384;20.390;2023-04-24T04:03:41;384.10;2329.60
55365;DHT22;41245;45.384;20.390;2023-04-24T04:06:07;384.10;2329.60
55365;DHT22;41245;45.384;20.390;2023-04-24T04:08:33;384.10;2329.60
55365;DHT22;41245;45.384;20.390;2023-04-24T04:10:58;384.10;2329.60
55365;DHT22;41245;45.384;20.390;2023-04-24T04:13:24;384.10;2329.60
55365;DHT22;41245;45.384;20.390;2023-04-24T04:15:50;384.00;2329.60
55365;DHT22;41245;45.384;20.390;2023-04-24T04:18:15;359.30;2329.60
55365;DHT22;41245;45.384;20.390;2023-04-24T04:20:41;384.00;2329.60
55365;DHT22;41245;45.384;20.390;2023-04-24T04:23:07;384.00;2329.60
55365;DHT22;41245;45.384;20.390;2023-04-24T04:25:33;384.10;2329.60
55365;DHT22;41245;45.384;20.390;2023-04-24T04:27:59;384.10;2329.60
55365;DHT22;41245;45.384;20.390;2023-04-24T04:30:25;384.10;2329.60
55365;DHT22;41245;45.384;20.390;2023-04-24T04:32:51;384.20;2329.60
55365;DHT22;41245;45.384;20.390;2023-04-24T04:35:17;384.20;2329.60
55365;DHT22;41245;45.384;20.390;2023-04-24T04:37:42;384.30;2329.60
55365;DHT22;41245;45.384;20.390;2023-04-24T04:40:08;384.30;2329.60
55365;DHT22;41245;45.384;20.390;2023-04-24T04:42:37;384.40;2329.60
55365;DHT22;41245;45.384;20.390;2023-04-24T04:45:08;384.40;2329.60
55365;DHT22;41245;45.384;20.390;2023-04-24T04:47:37;384.40;2329.60
55365;DHT22;41245;45.384;20.390;2023-04-24T04:50:03;384.50;2329.60
55365;DHT22;41245;45.384;20.390;2023-04-24T04:52:31;384.60;2329.60
55365;DHT22;41245;45.384;20.390;2023-04-24T04:54:56;384.70;2329.60
55365;DHT22;41245;45.384;20.390;2023-04-24T04:57:22;384.80;2329.60
55365;DHT22;41245;45.384;20.390;2023-04-24T04:59:48;409.60;2355.20
55365;DHT22;41245;45.384;20.390;2023-04-24T05:02:13;409.70;2355.20
55365;DHT22;41245;45.384;20.390;2023-04-24T05:04:39;409.90;2355.20
55365;DHT22;41245;45.384;20.390;2023-04-24T05:07:05;409.90;2355.20
55365;DHT22;41245;45.384;20.390;2023-04-24T05:09:31;410.20;2355.20
55365;DHT22;41245;45.384;20.390;2023-04-24T05:11:57;435.20;2355.20
55365;DHT22;41245;45.384;20.390;2023-04-24T05:14:23;435.90;2355.20
55365;DHT22;41245;45.384;20.390;2023-04-24T05:16:48;461.00;2380.80
55365;DHT22;41245;45.384;20.390;2023-04-24T05:19:14;460.90;2380.80
55365;DHT22;41245;45.384;20.390;2023-04-24T05:21:40;436.10;2355.20
55365;DHT22;41245;45.384;20.390;2023-04-24T05:24:06;460.90;2380.80
55365;DHT22;41245;45.384;20.390;2023-04-24T05:26:32;461.50;2380.80
55365;DHT22;41245;45.384;20.390;2023-04-24T05:28:58;461.60;2022.40
55365;DHT22;41245;45.384;20.390;2023-04-24T05:31:24;486.90;2124.80
55365;DHT22;41245;45.384;20.390;2023-04-24T05:33:50;512.40;2380.80
55365;DHT22;41245;45.384;20.390;2023-04-24T05:36:16;487.30;2355.20
55365;DHT22;41245;45.384;20.390;2023-04-24T05:38:42;512.00;2380.80
55365;DHT22;41245;45.384;20.390;2023-04-24T05:41:08;487.20;2380.80
55365;DHT22;41245;45.384;20.390;2023-04-24T05:43:33;487.20;2355.20
55365;DHT22;41245;45.384;20.390;2023-04-24T05:45:59;512.00;2380.80
55365;DHT22;41245;45.384;20.390;2023-04-24T05:48:25;487.30;2380.80
55365;DHT22;41245;45.384;20.390;2023-04-24T05:50:51;487.10;2355.20
55365;DHT22;41245;45.384;20.390;2023-04-24T05:53:18;486.50;2176.00
55365;DHT22;41245;45.384;20.390;2023-04-24T05:55:44;461.60;2022.40
55365;DHT22;41245;45.384;20.390;2023-04-24T05:58:11;461.20;2176.00
55365;DHT22;41245;45.384;20.390;2023-04-24T06:00:36;461.50;2099.20
55365;DHT22;41245;45.384;20.390;2023-04-24T06:03:03;486.40;2124.80
55365;DHT22;41245;45.384;20.390;2023-04-24T06:05:29;461.70;2124.80
55365;DHT22;41245;45.384;20.390;2023-04-24T06:07:55;486.50;2227.20
55365;DHT22;41245;45.384;20.390;2023-04-24T06:10:21;486.70;2176.00
55365;DHT22;41245;45.384;20.390;2023-04-24T06:12:47;486.80;2227.20
55365;DHT22;41245;45.384;20.390;2023-04-24T06:15:12;486.80;2201.60
55365;DHT22;41245;45.384;20.390;2023-04-24T06:17:38;486.80;2201.60
55365;DHT22;41245;45.384;20.390;2023-04-24T06:20:05;486.90;2227.20
55365;DHT22;41245;45.384;20.390;2023-04-24T06:22:32;487.00;2355.20
55365;DHT22;41245;45.384;20.390;2023-04-24T06:24:57;487.00;2201.60
55365;DHT22;41245;45.384;20.390;2023-04-24T06:27:23;512.30;2355.20
55365;DHT22;41245;45.384;20.390;2023-04-24T06:29:49;512.00;2380.80
55365;DHT22;41245;45.384;20.390;2023-04-24T06:32:23;487.30;2380.80
55365;DHT22;41245;45.384;20.390;2023-04-24T06:34:49;512.10;2380.80
55365;DHT22;41245;45.384;20.390;2023-04-24T06:37:15;512.00;2380.80
55365;DHT22;41245;45.384;20.390;2023-04-24T06:39:41;487.20;2380.80
55365;DHT22;41245;45.384;20.390;2023-04-24T06:42:07;486.80;2252.80
55365;DHT22;41245;45.384;20.390;2023-04-24T06:44:36;486.70;2252.80
55365;DHT22;41245;45.384;20.390;2023-04-24T06:47:07;486.50;2201.60
55365;DHT22;41245;45.384;20.390;2023-04-24T06:49:34;461.50;2022.40
55365;DHT22;41245;45.384;20.390;2023-04-24T06:52:00;461.40;2022.40
55365;DHT22;41245;45.384;20.390;2023-04-24T06:54:25;461.20;2022.40
55365;DHT22;41245;45.384;20.390;2023-04-24T06:56:51;461.10;2380.80
55365;DHT22;41245;45.384;20.390;2023-04-24T06:59:17;461.00;2380.80
55365;DHT22;41245;45.384;20.390;2023-04-24T07:01:43;436.10;2355.20
55365;DHT22;41245;45.384;20.390;2023-04-24T07:04:09;436.00;2355.20
55365;DHT22;41245;45.384;20.390;2023-04-24T07:06:35;436.00;2355.20
55365;DHT22;41245;45.384;20.390;2023-04-24T07:09:01;436.10;2355.20
55365;DHT22;41245;45.384;20.390;2023-04-24T07:11:27;436.10;2355.20
55365;DHT22;41245;45.384;20.390;2023-04-24T07:13:55;436.00;2355.20
55365;DHT22;41245;45.384;20.390;2023-04-24T07:16:21;460.90;2380.80
55365;DHT22;41245;45.384;20.390;2023-04-24T07:18:47;460.80;2380.80
55365;DHT22;41245;45.384;20.390;2023-04-24T07:21:12;460.80;2380.80
55365;DHT22;41245;45.384;20.390;2023-04-24T07:23:38;460.90;2380.80
55365;DHT22;41245;45.384;20.390;2023-04-24T07:26:04;461.00;2380.80
55365;DHT22;41245;45.384;20.390;2023-04-24T07:28:30;461.00;2380.80
55365;DHT22;41245;45.384;20.390;2023-04-24T07:30:57;461.10;2380.80
55365;DHT22;41245;45.384;20.390;2023-04-24T07:33:24;461.20;2380.80
55365;DHT22;41245;45.384;20.390;2023-04-24T07:35:49;461.20;2380.80
55365;DHT22;41245;45.384;20.390;2023-04-24T07:38:15;461.20;2380.80
55365;DHT22;41245;45.384;20.390;2023-04-24T07:40:41;461.10;2380.80
55365;DHT22;41245;45.384;20.390;2023-04-24T07:43:07;436.00;2355.20
55365;DHT22;41245;45.384;20.390;2023-04-24T07:45:32;435.80;2355.20
55365;DHT22;41245;45.384;20.390;2023-04-24T07:48:02;436.00;2355.20
55365;DHT22;41245;45.384;20.390;2023-04-24T07:50:28;435.90;2355.20
55365;DHT22;41245;45.384;20.390;2023-04-24T07:52:54;435.70;2355.20
55365;DHT22;41245;45.384;20.390;2023-04-24T07:55:20;435.70;2355.20
55365;DHT22;41245;45.384;20.390;2023-04-24T07:57:45;435.60;2355.20
55365;DHT22;41245;45.384;20.390;2023-04-24T08:00:12;435.70;2355.20
55365;DHT22;41245;45.384;20.390;2023-04-24T08:02:37;435.60;2355.20
55365;DHT22;41245;45.384;20.390;2023-04-24T08:05:03;435.50;2355.20
55365;DHT22;41245;45.384;20.390;2023-04-24T08:07:29;435.60;2355.20
55365;DHT22;41245;45.384;20.390;2023-04-24T08:09:55;435.40;2355.20
55365;DHT22;41245;45.384;20.390;2023-04-24T08:12:21;435.40;2355.20
55365;DHT22;41245;45.384;20.390;2023-04-24T08:14:46;435.30;2355.20
55365;DHT22;41245;45.384;20.390;2023-04-24T08:17:12;435.30;2355.20
55365;DHT22;41245;45.384;20.390;2023-04-24T08:19:39;435.20;2355.20
55365;DHT22;41245;45.384;20.390;2023-04-24T08:22:07;410.40;2355.20
55365;DHT22;41245;45.384;20.390;2023-04-24T08:24:33;410.50;2355.20
55365;DHT22;41245;45.384;20.390;2023-04-24T08:26:59;435.30;2355.20
55365;DHT22;41245;45.384;20.390;2023-04-24T08:29:24;435.50;2355.20
55365;DHT22;41245;45.384;20.390;2023-04-24T08:31:50;435.70;2355.20
55365;DHT22;41245;45.384;20.390;2023-04-24T08:34:16;435.80;2355.20
55365;DHT22;41245;45.384;20.390;2023-04-24T08:36:41;435.90;2355.20
55365;DHT22;41245;45.384;20.390;2023-04-24T08:39:07;436.10;2355.20
55365;DHT22;41245;45.384;20.390;2023-04-24T08:41:34;460.90;2380.80
55365;DHT22;41245;45.384;20.390;2023-04-24T08:44:02;461.10;2380.80
55365;DHT22;41245;45.384;20.390;2023-04-24T08:46:29;461.20;2380.80
55365;DHT22;41245;45.384;20.390;2023-04-24T08:48:56;461.20;2380.80
55365;DHT22;41245;45.384;20.390;2023-04-24T08:51:22;461.20;2380.80
55365;DHT22;41245;45.384;20.390;2023-04-24T08:53:49;461.10;2380.80
55365;DHT22;41245;45.384;20.390;2023-04-24T08:56:17;461.20;2380.80
55365;DHT22;41245;45.384;20.390;2023-04-24T08:58:43;461.30;2380.80
55365;DHT22;41245;45.384;20.390;2023-04-24T09:01:09;461.40;2380.80
55365;DHT22;41245;45.384;20.390;2023-04-24T09:03:36;461.20;2380.80
55365;DHT22;41245;45.384;20.390;2023-04-24T09:06:02;461.20;2380.80
55365;DHT22;41245;45.384;20.390;2023-04-24T09:08:29;461.30;2380.80
55365;DHT22;41245;45.384;20.390;2023-04-24T09:10:56;461.50;2380.80
55365;DHT22;41245;45.384;20.390;2023-04-24T09:13:24;461.60;2380.80
55365;DHT22;41245;45.384;20.390;2023-04-24T09:15:50;461.60;2380.80
55365;DHT22;41245;45.384;20.390;2023-04-24T09:18:17;461.60;2380.80
55365;DHT22;41245;45.384;20.390;2023-04-24T09:21:02;461.70;2380.80
55365;DHT22;41245;45.384;20.390;2023-04-24T09:23:30;486.40;2380.80
55365;DHT22;41245;45.384;20.390;2023-04-24T09:25:57;486.40;2380.80
55365;DHT22;41245;45.384;20.390;2023-04-24T09:28:37;461.70;2380.80
55365;DHT22;41245;45.384;20.390;2023-04-24T09:31:09;486.40;2380.80
55365;DHT22;41245;45.384;20.390;2023-04-24T09:33:36;486.60;2022.40
55365;DHT22;41245;45.384;20.390;2023-04-24T09:36:02;487.00;2022.40
55365;DHT22;41245;45.384;20.390;2023-04-24T09:38:46;487.20;2124.80
55365;DHT22;41245;45.384;20.390;2023-04-24T09:41:13;512.10;2201.60
55365;DHT22;41245;45.384;20.390;2023-04-24T09:43:39;512.60;2355.20
55365;DHT22;41245;45.384;20.390;2023-04-24T09:46:06;512.90;2380.80
55365;DHT22;41245;45.384;20.390;2023-04-24T09:48:34;538.00;2406.40
55365;DHT22;41245;45.384;20.390;2023-04-24T09:51:01;538.30;2406.40
55365;DHT22;41245;45.384;20.390;2023-04-24T09:53:30;538.30;2406.40
55365;DHT22;41245;45.384;20.390;2023-04-24T09:56:01;538.20;2406.40
55365;DHT22;41245;45.384;20.390;2023-04-24T09:58:28;537.60;2406.40
55365;DHT22;41245;45.384;20.390;2023-04-24T10:00:56;512.90;2380.80
55365;DHT22;41245;45.384;20.390;2023-04-24T10:03:24;512.40;2380.80
55365;DHT22;41245;45.384;20.390;2023-04-24T10:05:52;512.30;2201.60
55365;DHT22;41245;45.384;20.390;2023-04-24T10:08:18;512.00;2176.00
55365;DHT22;41245;45.384;20.390;2023-04-24T10:10:45;487.20;2099.20
55365;DHT22;41245;45.384;20.390;2023-04-24T10:13:12;487.20;2124.80
55365;DHT22;41245;45.384;20.390;2023-04-24T10:15:39;487.20;2048.00
55365;DHT22;41245;45.384;20.390;2023-04-24T10:18:06;487.00;2073.60
55365;DHT22;41245;45.384;20.390;2023-04-24T10:20:33;486.90;2048.00
55365;DHT22;41245;45.384;20.390;2023-04-24T10:22:59;486.90;2022.40
55365;DHT22;41245;45.384;20.390;2023-04-24T10:25:30;486.90;2022.40
55365;DHT22;41245;45.384;20.390;2023-04-24T10:27:57;486.60;1996.80
55365;DHT22;41245;45.384;20.390;2023-04-24T10:30:26;487.10;2022.40
55365;DHT22;41245;45.384;20.390;2023-04-24T10:32:53;487.20;2022.40
55365;DHT22;41245;45.384;20.390;2023-04-24T10:35:18;487.10;1996.80
55365;DHT22;41245;45.384;20.390;2023-04-24T10:37:56;486.90;2048.00
55365;DHT22;41245;45.384;20.390;2023-04-24T10:40:42;487.00;2048.00
55365;DHT22;41245;45.384;20.390;2023-04-24T10:43:09;486.90;2022.40
55365;DHT22;41245;45.384;20.390;2023-04-24T10:45:37;486.80;2022.40
55365;DHT22;41245;45.384;20.390;2023-04-24T10:48:05;486.60;1996.80
55365;DHT22;41245;45.384;20.390;2023-04-24T10:50:50;486.70;2380.80
55365;DHT22;41245;45.384;20.390;2023-04-24T10:53:21;486.70;2022.40
55365;DHT22;41245;45.384;20.390;2023-04-24T10:55:51;486.60;2380.80
55365;DHT22;41245;45.384;20.390;2023-04-24T10:58:22;486.70;1996.80
55365;DHT22;41245;45.384;20.390;2023-04-24T11:01:00;486.60;2380.80
55365;DHT22;41245;45.384;20.390;2023-04-24T11:03:32;486.70;2380.80
55365;DHT22;41245;45.384;20.390;2023-04-24T11:11:09;486.90;2380.80
55365;DHT22;41245;45.384;20.390;2023-04-24T11:16:31;486.90;2380.80
55365;DHT22;41245;45.384;20.390;2023-04-24T11:21:47;461.70;2380.80
55365;DHT22;41245;45.384;20.390;2023-04-24T11:29:47;486.50;2022.40
55365;DHT22;41245;45.384;20.390;2023-04-24T11:37:26;486.70;2073.60
55365;DHT22;41245;45.384;20.390;2023-04-24T11:39:54;486.80;2073.60
55365;DHT22;41245;45.384;20.390;2023-04-24T11:42:21;486.90;2124.80
55365;DHT22;41245;45.384;20.390;2023-04-24T11:44:50;487.00;2048.00
55365;DHT22;41245;45.384;20.390;2023-04-24T11:47:17;487.10;2099.20
55365;DHT22;41245;45.384;20.390;2023-04-24T11:49:43;487.20;2073.60
55365;DHT22;41245;45.384;20.390;2023-04-24T11:52:09;487.10;1996.80
55365;DHT22;41245;45.384;20.390;2023-04-24T11:54:36;487.10;2099.20
55365;DHT22;41245;45.384;20.390;2023-04-24T11:57:05;486.90;2048.00
55365;DHT22;41245;45.384;20.390;2023-04-24T11:59:36;487.10;2150.40
55365;DHT22;41245;45.384;20.390;2023-04-24T12:02:02;487.10;2124.80
55365;DHT22;41245;45.384;20.390;2023-04-24T12:04:40;487.10;2124.80
55365;DHT22;41245;45.384;20.390;2023-04-24T12:07:06;487.00;2099.20
55365;DHT22;41245;45.384;20.390;2023-04-24T12:12:16;487.20;2150.40
55365;DHT22;41245;45.384;20.390;2023-04-24T12:14:50;512.00;1996.80
55365;DHT22;41245;45.384;20.390;2023-04-24T12:17:16;487.20;2022.40
55365;DHT22;41245;45.384;20.390;2023-04-24T12:19:48;487.20;2073.60
55365;DHT22;41245;45.384;20.390;2023-04-24T12:22:14;487.20;2124.80
55365;DHT22;41245;45.384;20.390;2023-04-24T12:27:22;487.20;2048.00
55365;DHT22;41245;45.384;20.390;2023-04-24T12:29:58;487.10;2073.60
55365;DHT22;41245;45.384;20.390;2023-04-24T12:32:25;487.20;2099.20
55365;DHT22;41245;45.384;20.390;2023-04-24T12:34:51;487.10;2073.60
55365;DHT22;41245;45.384;20.390;2023-04-24T12:37:18;487.20;2099.20
55365;DHT22;41245;45.384;20.390;2023-04-24T12:42:27;512.30;2176.00
55365;DHT22;41245;45.384;20.390;2023-04-24T12:44:56;512.50;2073.60
55365;DHT22;41245;45.384;20.390;2023-04-24T12:47:24;512.70;2227.20
55365;DHT22;41245;45.384;20.390;2023-04-24T12:49:50;512.90;2176.00
55365;DHT22;41245;45.384;20.390;2023-04-24T12:52:18;512.80;2278.40
55365;DHT22;41245;45.384;20.390;2023-04-24T12:54:45;512.60;2304.00
55365;DHT22;41245;45.384;20.390;2023-04-24T12:57:11;512.50;2355.20
55365;DHT22;41245;45.384;20.390;2023-04-24T12:59:39;487.30;2304.00
55365;DHT22;41245;45.384;20.390;2023-04-24T13:02:05;512.50;2329.60
55365;DHT22;41245;45.384;20.390;2023-04-24T13:04:31;512.60;2329.60
55365;DHT22;41245;45.384;20.390;2023-04-24T13:06:57;512.60;2329.60
55365;DHT22;41245;45.384;20.390;2023-04-24T13:09:23;512.40;2201.60
55365;DHT22;41245;45.384;20.390;2023-04-24T13:11:50;512.30;2252.80
55365;DHT22;41245;45.384;20.390;2023-04-24T13:14:16;512.30;2278.40
55365;DHT22;41245;45.384;20.390;2023-04-24T13:16:41;512.20;2278.40
55365;DHT22;41245;45.384;20.390;2023-04-24T13:19:07;512.30;2278.40
55365;DHT22;41245;45.384;20.390;2023-04-24T13:21:32;512.20;2201.60
55365;DHT22;41245;45.384;20.390;2023-04-24T13:23:58;512.30;2227.20
55365;DHT22;41245;45.384;20.390;2023-04-24T13:26:24;512.30;2329.60
55365;DHT22;41245;45.384;20.390;2023-04-24T13:28:50;512.30;2278.40
55365;DHT22;41245;45.384;20.390;2023-04-24T13:31:16;512.30;2150.40
55365;DHT22;41245;45.384;20.390;2023-04-24T13:33:42;512.20;2201.60
55365;DHT22;41245;45.384;20.390;2023-04-24T13:36:08;512.20;2304.00
55365;DHT22;41245;45.384;20.390;2023-04-24T13:38:34;512.10;2304.00
55365;DHT22;41245;45.384;20.390;2023-04-24T13:41:00;512.10;2201.60
55365;DHT22;41245;45.384;20.390;2023-04-24T13:43:25;512.00;2227.20
55365;DHT22;41245;45.384;20.390;2023-04-24T13:45:51;512.00;2201.60
55365;DHT22;41245;45.384;20.390;2023-04-24T13:48:17;487.30;2099.20
55365;DHT22;41245;45.384;20.390;2023-04-24T13:50:43;487.30;2124.80
55365;DHT22;41245;45.384;20.390;2023-04-24T13:53:09;487.20;2022.40
55365;DHT22;41245;45.384;20.390;2023-04-24T13:55:36;487.20;2150.40
55365;DHT22;41245;45.384;20.390;2023-04-24T13:58:02;487.20;2124.80
55365;DHT22;41245;45.384;20.390;2023-04-24T14:00:28;487.20;2099.20
55365;DHT22;41245;45.384;20.390;2023-04-24T14:02:54;487.20;2099.20
55365;DHT22;41245;45.384;20.390;2023-04-24T14:05:19;486.80;2380.80
55365;DHT22;41245;45.384;20.390;2023-04-24T14:07:47;487.10;2124.80
55365;DHT22;41245;45.384;20.390;2023-04-24T14:10:14;486.90;2022.40
55365;DHT22;41245;45.384;20.390;2023-04-24T14:12:39;486.80;2073.60
55365;DHT22;41245;45.384;20.390;2023-04-24T14:15:06;486.80;2022.40
55365;DHT22;41245;45.384;20.390;2023-04-24T14:17:32;486.70;2022.40
55365;DHT22;41245;45.384;20.390;2023-04-24T14:19:57;486.70;2073.60
55365;DHT22;41245;45.384;20.390;2023-04-24T14:22:25;486.60;2022.40
55365;DHT22;41245;45.384;20.390;2023-04-24T14:24:50;461.70;1996.80
55365;DHT22;41245;45.384;20.390;2023-04-24T14:27:16;461.70;2380.80
55365;DHT22;41245;45.384;20.390;2023-04-24T14:29:42;461.70;2380.80
55365;DHT22;41245;45.384;20.390;2023-04-24T14:32:08;486.40;1996.80
55365;DHT22;41245;45.384;20.390;2023-04-24T14:34:34;461.60;2380.80
55365;DHT22;41245;45.384;20.390;2023-04-24T14:37:00;486.40;2380.80
55365;DHT22;41245;45.384;20.390;2023-04-24T14:39:26;486.40;2380.80
55365;DHT22;41245;45.384;20.390;2023-04-24T14:41:51;486.60;2380.80
55365;DHT22;41245;45.384;20.390;2023-04-24T14:44:17;486.60;2380.80
55365;DHT22;41245;45.384;20.390;2023-04-24T14:46:43;486.60;2022.40
55365;DHT22;41245;45.384;20.390;2023-04-24T14:49:09;486.70;2022.40
55365;DHT22;41245;45.384;20.390;2023-04-24T14:51:36;486.50;2380.80
55365;DHT22;41245;45.384;20.390;2023-04-24T14:54:01;486.70;2048.00
55365;DHT22;41245;45.384;20.390;2023-04-24T14:56:28;486.90;2073.60
55365;DHT22;41245;45.384;20.390;2023-04-24T14:58:53;487.10;2022.40
55365;DHT22;41245;45.384;20.390;2023-04-24T15:01:20;487.30;2099.20